sensor_id;sensor_type;location;lat;lon;timestamp;temperature;humidity
21184;DHT22;18176;49.502;11.754;2024-02-26T00:02:39;-0.30;99.90
21184;DHT22;18176;49.502;11.754;2024-02-26T00:07:00;-0.40;99.90
21184;DHT22;18176;49.502;11.754;2024-02-26T00:11:21;-0.40;99.90
21184;DHT22;18176;49.502;11.754;2024-02-26T00:15:44;-0.40;99.90
21184;DHT22;18176;49.502;11.754;2024-02-26T00:20:06;-0.40;99.90
21184;DHT22;18176;49.502;11.754;2024-02-26T00:24:28;-0.40;99.90
21184;DHT22;18176;49.502;11.754;2024-02-26T00:28:48;-0.40;99.90
21184;DHT22;18176;49.502;11.754;2024-02-26T00:33:12;-0.40;99.90
21184;DHT22;18176;49.502;11.754;2024-02-26T00:37:33;-0.40;99.90
21184;DHT22;18176;49.502;11.754;2024-02-26T00:41:53;-0.40;99.90
21184;DHT22;18176;49.502;11.754;2024-02-26T00:46:14;-0.40;99.90
21184;DHT22;18176;49.502;11.754;2024-02-26T00:50:37;-0.50;99.90
21184;DHT22;18176;49.502;11.754;2024-02-26T00:54:58;-0.60;99.90
21184;DHT22;18176;49.502;11.754;2024-02-26T00:59:19;-0.60;99.90
21184;DHT22;18176;49.502;11.754;2024-02-26T01:03:39;-0.70;99.90
21184;DHT22;18176;49.502;11.754;2024-02-26T01:08:03;-0.80;99.90
21184;DHT22;18176;49.502;11.754;2024-02-26T01:12:25;-0.80;99.90
21184;DHT22;18176;49.502;11.754;2024-02-26T01:16:46;-0.90;99.90
21184;DHT22;18176;49.502;11.754;2024-02-26T01:21:06;-0.90;99.90
21184;DHT22;18176;49.502;11.754;2024-02-26T01:25:29;-1.00;99.90
21184;DHT22;18176;49.502;11.754;2024-02-26T01:29:50;-1.00;99.90
21184;DHT22;18176;49.502;11.754;2024-02-26T01:34:11;-1.00;99.90
21184;DHT22;18176;49.502;11.754;2024-02-26T01:38:32;-1.00;99.90
21184;DHT22;18176;49.502;11.754;2024-02-26T01:42:55;-1.10;99.90
21184;DHT22;18176;49.502;11.754;2024-02-26T01:47:16;-1.10;99.90
21184;DHT22;18176;49.502;11.754;2024-02-26T01:51:38;-1.20;99.90
21184;DHT22;18176;49.502;11.754;2024-02-26T01:56:02;-1.20;99.90
21184;DHT22;18176;49.502;11.754;2024-02-26T02:00:26;-1.20;99.90
21184;DHT22;18176;49.502;11.754;2024-02-26T02:04:47;-1.30;99.90
21184;DHT22;18176;49.502;11.754;2024-02-26T02:09:08;-1.30;99.90
21184;DHT22;18176;49.502;11.754;2024-02-26T02:13:29;-1.30;99.90
21184;DHT22;18176;49.502;11.754;2024-02-26T02:17:52;-1.30;99.90
21184;DHT22;18176;49.502;11.754;2024-02-26T02:22:15;-1.40;99.90
21184;DHT22;18176;49.502;11.754;2024-02-26T02:26:36;-1.40;99.90
21184;DHT22;18176;49.502;11.754;2024-02-26T02:30:57;-1.40;99.90
21184;DHT22;18176;49.502;11.754;2024-02-26T02:35:18;-1.40;99.90
21184;DHT22;18176;49.502;11.754;2024-02-26T02:39:41;-1.40;99.90
21184;DHT22;18176;49.502;11.754;2024-02-26T02:44:03;-1.40;99.90
21184;DHT22;18176;49.502;11.754;2024-02-26T02:48:24;-1.40;99.90
21184;DHT22;18176;49.502;11.754;2024-02-26T02:52:45;-1.40;99.90
21184;DHT22;18176;49.502;11.754;2024-02-26T02:57:09;-1.40;99.90
21184;DHT22;18176;49.502;11.754;2024-02-26T03:01:30;-1.40;99.90
21184;DHT22;18176;49.502;11.754;2024-02-26T03:05:50;-1.40;99.90
21184;DHT22;18176;49.502;11.754;2024-02-26T03:10:11;-1.40;99.90
21184;DHT22;18176;49.502;11.754;2024-02-26T03:14:34;-1.30;99.90
21184;DHT22;18176;49.502;11.754;2024-02-26T03:18:55;-1.20;99.90
21184;DHT22;18176;49.502;11.754;2024-02-26T03:23:16;-1.10;99.90
21184;DHT22;18176;49.502;11.754;2024-02-26T03:27:38;-1.00;99.90
21184;DHT22;18176;49.502;11.754;2024-02-26T03:32:01;-0.90;99.90
21184;DHT22;18176;49.502;11.754;2024-02-26T03:36:22;-0.80;99.90
21184;DHT22;18176;49.502;11.754;2024-02-26T03:40:43;-0.80;99.90
21184;DHT22;18176;49.502;11.754;2024-02-26T03:45:05;-0.80;99.90
21184;DHT22;18176;49.502;11.754;2024-02-26T03:49:29;-0.80;99.90
21184;DHT22;18176;49.502;11.754;2024-02-26T03:53:50;-0.90;99.90
21184;DHT22;18176;49.502;11.754;2024-02-26T03:58:12;-1.00;99.90
21184;DHT22;18176;49.502;11.754;2024-02-26T04:02:33;-1.10;99.90
21184;DHT22;18176;49.502;11.754;2024-02-26T04:06:56;-1.20;99.90
21184;DHT22;18176;49.502;11.754;2024-02-26T04:11:17;-1.20;99.90
21184;DHT22;18176;49.502;11.754;2024-02-26T04:15:39;-1.20;99.90
21184;DHT22;18176;49.502;11.754;2024-02-26T04:19:59;-1.10;99.90
21184;DHT22;18176;49.502;11.754;2024-02-26T04:24:23;-1.10;99.90
21184;DHT22;18176;49.502;11.754;2024-02-26T04:28:43;-1.10;99.90
21184;DHT22;18176;49.502;11.754;2024-02-26T04:33:04;-1.10;99.90
21184;DHT22;18176;49.502;11.754;2024-02-26T04:37:25;-1.10;99.90
21184;DHT22;18176;49.502;11.754;2024-02-26T04:41:51;-1.10;99.90
21184;DHT22;18176;49.502;11.754;2024-02-26T04:46:12;-1.10;99.90
21184;DHT22;18176;49.502;11.754;2024-02-26T04:50:33;-1.10;99.90
21184;DHT22;18176;49.502;11.754;2024-02-26T04:54:53;-1.10;99.90
21184;DHT22;18176;49.502;11.754;2024-02-26T04:59:17;-1.20;99.90
21184;DHT22;18176;49.502;11.754;2024-02-26T05:03:37;-1.20;99.90
21184;DHT22;18176;49.502;11.754;2024-02-26T05:07:58;-1.10;99.90
21184;DHT22;18176;49.502;11.754;2024-02-26T05:12:20;-1.00;99.90
21184;DHT22;18176;49.502;11.754;2024-02-26T05:16:43;-0.90;99.90
21184;DHT22;18176;49.502;11.754;2024-02-26T05:21:04;-0.80;99.90
21184;DHT22;18176;49.502;11.754;2024-02-26T05:25:25;-0.80;99.90
21184;DHT22;18176;49.502;11.754;2024-02-26T05:29:46;-0.70;99.90
21184;DHT22;18176;49.502;11.754;2024-02-26T05:34:09;-0.60;99.90
21184;DHT22;18176;49.502;11.754;2024-02-26T05:38:30;-0.60;99.90
21184;DHT22;18176;49.502;11.754;2024-02-26T05:42:51;-0.50;99.90
21184;DHT22;18176;49.502;11.754;2024-02-26T05:47:11;-0.50;99.90
21184;DHT22;18176;49.502;11.754;2024-02-26T05:51:35;-0.50;99.90
21184;DHT22;18176;49.502;11.754;2024-02-26T05:55:55;-0.40;99.90
21184;DHT22;18176;49.502;11.754;2024-02-26T06:00:16;-0.40;99.90
21184;DHT22;18176;49.502;11.754;2024-02-26T06:04:37;-0.40;99.90
21184;DHT22;18176;49.502;11.754;2024-02-26T06:09:01;-0.40;99.90
21184;DHT22;18176;49.502;11.754;2024-02-26T06:13:22;-0.40;99.90
21184;DHT22;18176;49.502;11.754;2024-02-26T06:17:43;-0.40;99.90
21184;DHT22;18176;49.502;11.754;2024-02-26T06:22:04;-0.40;99.90
21184;DHT22;18176;49.502;11.754;2024-02-26T06:26:27;-0.50;99.90
21184;DHT22;18176;49.502;11.754;2024-02-26T06:30:48;-0.60;99.90
21184;DHT22;18176;49.502;11.754;2024-02-26T06:35:09;-0.60;99.90
21184;DHT22;18176;49.502;11.754;2024-02-26T06:39:30;-0.50;99.90
21184;DHT22;18176;49.502;11.754;2024-02-26T06:43:53;-0.60;99.90
21184;DHT22;18176;49.502;11.754;2024-02-26T06:48:14;-0.60;99.90
21184;DHT22;18176;49.502;11.754;2024-02-26T06:52:35;-0.40;99.90
21184;DHT22;18176;49.502;11.754;2024-02-26T06:56:55;-0.30;99.90
21184;DHT22;18176;49.502;11.754;2024-02-26T07:01:19;-0.20;99.90
21184;DHT22;18176;49.502;11.754;2024-02-26T07:05:40;0.00;99.90
21184;DHT22;18176;49.502;11.754;2024-02-26T07:10:02;0.30;99.90
21184;DHT22;18176;49.502;11.754;2024-02-26T07:14:23;0.80;99.90
21184;DHT22;18176;49.502;11.754;2024-02-26T07:18:47;1.20;99.90
21184;DHT22;18176;49.502;11.754;2024-02-26T07:23:08;1.40;99.90
21184;DHT22;18176;49.502;11.754;2024-02-26T07:27:29;1.80;99.90
21184;DHT22;18176;49.502;11.754;2024-02-26T07:31:49;2.20;99.90
21184;DHT22;18176;49.502;11.754;2024-02-26T07:36:13;2.70;99.90
21184;DHT22;18176;49.502;11.754;2024-02-26T07:40:34;3.30;99.90
21184;DHT22;18176;49.502;11.754;2024-02-26T07:45:07;3.80;99.90
21184;DHT22;18176;49.502;11.754;2024-02-26T07:49:28;4.30;99.90
21184;DHT22;18176;49.502;11.754;2024-02-26T07:53:54;4.50;99.90
21184;DHT22;18176;49.502;11.754;2024-02-26T07:58:15;5.30;99.90
21184;DHT22;18176;49.502;11.754;2024-02-26T08:02:36;5.60;99.90
21184;DHT22;18176;49.502;11.754;2024-02-26T08:06:59;5.40;99.90
21184;DHT22;18176;49.502;11.754;2024-02-26T08:11:22;5.00;99.90
21184;DHT22;18176;49.502;11.754;2024-02-26T08:15:43;4.70;99.90
21184;DHT22;18176;49.502;11.754;2024-02-26T08:20:05;4.60;99.90
21184;DHT22;18176;49.502;11.754;2024-02-26T08:24:26;4.60;99.90
21184;DHT22;18176;49.502;11.754;2024-02-26T08:28:50;4.50;99.90
21184;DHT22;18176;49.502;11.754;2024-02-26T08:33:13;4.40;99.90
21184;DHT22;18176;49.502;11.754;2024-02-26T08:37:34;4.40;99.90
21184;DHT22;18176;49.502;11.754;2024-02-26T08:41:55;4.30;99.90
21184;DHT22;18176;49.502;11.754;2024-02-26T08:46:18;4.50;99.90
21184;DHT22;18176;49.502;11.754;2024-02-26T08:50:39;4.70;99.90
21184;DHT22;18176;49.502;11.754;2024-02-26T08:54:59;4.90;99.90
21184;DHT22;18176;49.502;11.754;2024-02-26T08:59:20;5.20;99.90
21184;DHT22;18176;49.502;11.754;2024-02-26T09:03:43;5.60;99.90
21184;DHT22;18176;49.502;11.754;2024-02-26T09:08:05;5.90;99.90
21184;DHT22;18176;49.502;11.754;2024-02-26T09:12:26;6.40;99.90
21184;DHT22;18176;49.502;11.754;2024-02-26T09:16:47;6.60;99.90
21184;DHT22;18176;49.502;11.754;2024-02-26T09:21:11;6.80;99.90
21184;DHT22;18176;49.502;11.754;2024-02-26T09:25:33;7.10;99.90
21184;DHT22;18176;49.502;11.754;2024-02-26T09:29:53;7.10;99.90
21184;DHT22;18176;49.502;11.754;2024-02-26T09:34:14;7.50;99.90
21184;DHT22;18176;49.502;11.754;2024-02-26T09:38:38;7.50;99.90
21184;DHT22;18176;49.502;11.754;2024-02-26T09:43:14;7.20;99.90
21184;DHT22;18176;49.502;11.754;2024-02-26T09:47:42;7.40;99.90
21184;DHT22;18176;49.502;11.754;2024-02-26T09:52:04;7.50;99.90
21184;DHT22;18176;49.502;11.754;2024-02-26T09:56:29;7.50;99.90
21184;DHT22;18176;49.502;11.754;2024-02-26T10:00:53;7.40;99.90
21184;DHT22;18176;49.502;11.754;2024-02-26T10:05:18;7.00;99.90
21184;DHT22;18176;49.502;11.754;2024-02-26T10:09:40;7.00;99.90
21184;DHT22;18176;49.502;11.754;2024-02-26T10:14:03;7.10;99.90
21184;DHT22;18176;49.502;11.754;2024-02-26T10:24:01;7.60;99.90
21184;DHT22;18176;49.502;11.754;2024-02-26T10:28:25;8.10;99.90
21184;DHT22;18176;49.502;11.754;2024-02-26T10:32:50;8.60;99.90
21184;DHT22;18176;49.502;11.754;2024-02-26T10:37:11;9.20;99.90
21184;DHT22;18176;49.502;11.754;2024-02-26T10:41:33;9.90;99.90
21184;DHT22;18176;49.502;11.754;2024-02-26T10:45:56;10.30;99.90
21184;DHT22;18176;49.502;11.754;2024-02-26T10:50:20;10.30;99.90
21184;DHT22;18176;49.502;11.754;2024-02-26T10:54:42;10.50;99.90
21184;DHT22;18176;49.502;11.754;2024-02-26T10:59:09;10.20;99.90
21184;DHT22;18176;49.502;11.754;2024-02-26T11:03:32;10.40;99.90
21184;DHT22;18176;49.502;11.754;2024-02-26T11:07:57;10.50;99.90
21184;DHT22;18176;49.502;11.754;2024-02-26T11:12:21;10.20;99.90
21184;DHT22;18176;49.502;11.754;2024-02-26T11:16:45;10.30;99.90
21184;DHT22;18176;49.502;11.754;2024-02-26T11:21:12;10.90;99.90
21184;DHT22;18176;49.502;11.754;2024-02-26T11:25:38;11.00;99.90
21184;DHT22;18176;49.502;11.754;2024-02-26T11:30:01;10.50;99.90
21184;DHT22;18176;49.502;11.754;2024-02-26T11:34:25;10.20;99.90
21184;DHT22;18176;49.502;11.754;2024-02-26T11:38:46;9.80;99.90
21184;DHT22;18176;49.502;11.754;2024-02-26T11:43:14;9.70;99.90
21184;DHT22;18176;49.502;11.754;2024-02-26T11:47:38;10.20;99.90
21184;DHT22;18176;49.502;11.754;2024-02-26T11:51:59;10.50;99.90
21184;DHT22;18176;49.502;11.754;2024-02-26T11:56:22;10.70;99.90
21184;DHT22;18176;49.502;11.754;2024-02-26T12:00:57;11.00;99.90
21184;DHT22;18176;49.502;11.754;2024-02-26T12:05:20;11.30;99.90
21184;DHT22;18176;49.502;11.754;2024-02-26T12:09:47;11.70;99.90
21184;DHT22;18176;49.502;11.754;2024-02-26T12:14:11;12.30;99.90
21184;DHT22;18176;49.502;11.754;2024-02-26T12:18:35;12.20;99.90
21184;DHT22;18176;49.502;11.754;2024-02-26T12:23:02;11.90;99.90
21184;DHT22;18176;49.502;11.754;2024-02-26T12:27:24;12.20;99.90
21184;DHT22;18176;49.502;11.754;2024-02-26T12:31:46;12.10;99.90
21184;DHT22;18176;49.502;11.754;2024-02-26T12:36:11;12.30;99.90
21184;DHT22;18176;49.502;11.754;2024-02-26T12:40:34;13.00;99.90
21184;DHT22;18176;49.502;11.754;2024-02-26T12:44:59;14.20;99.90
21184;DHT22;18176;49.502;11.754;2024-02-26T12:49:25;15.50;99.90
21184;DHT22;18176;49.502;11.754;2024-02-26T12:53:49;17.00;99.90
21184;DHT22;18176;49.502;11.754;2024-02-26T12:58:11;17.90;99.90
21184;DHT22;18176;49.502;11.754;2024-02-26T13:02:35;18.40;98.20
21184;DHT22;18176;49.502;11.754;2024-02-26T13:06:57;18.60;96.80
21184;DHT22;18176;49.502;11.754;2024-02-26T13:11:24;19.10;95.30
21184;DHT22;18176;49.502;11.754;2024-02-26T13:15:46;18.70;95.00
21184;DHT22;18176;49.502;11.754;2024-02-26T13:20:09;19.20;92.70
21184;DHT22;18176;49.502;11.754;2024-02-26T13:24:32;18.10;93.90
21184;DHT22;18176;49.502;11.754;2024-02-26T13:29:03;18.60;93.70
21184;DHT22;18176;49.502;11.754;2024-02-26T13:33:25;18.80;92.40
21184;DHT22;18176;49.502;11.754;2024-02-26T13:37:48;17.60;92.90
21184;DHT22;18176;49.502;11.754;2024-02-26T13:42:09;15.70;95.80
21184;DHT22;18176;49.502;11.754;2024-02-26T13:46:33;15.20;97.30
21184;DHT22;18176;49.502;11.754;2024-02-26T13:50:54;15.50;97.40
21184;DHT22;18176;49.502;11.754;2024-02-26T13:55:15;14.90;97.50
21184;DHT22;18176;49.502;11.754;2024-02-26T13:59:36;14.70;99.00
21184;DHT22;18176;49.502;11.754;2024-02-26T14:04:02;15.70;99.10
21184;DHT22;18176;49.502;11.754;2024-02-26T14:08:28;16.50;97.90
21184;DHT22;18176;49.502;11.754;2024-02-26T14:12:50;16.40;97.90
21184;DHT22;18176;49.502;11.754;2024-02-26T14:17:10;16.40;97.30
21184;DHT22;18176;49.502;11.754;2024-02-26T14:21:35;16.20;97.70
21184;DHT22;18176;49.502;11.754;2024-02-26T14:25:56;16.20;98.50
21184;DHT22;18176;49.502;11.754;2024-02-26T14:30:18;16.80;97.50
21184;DHT22;18176;49.502;11.754;2024-02-26T14:34:39;15.80;98.20
21184;DHT22;18176;49.502;11.754;2024-02-26T14:39:03;15.30;99.90
21184;DHT22;18176;49.502;11.754;2024-02-26T14:43:24;14.30;99.90
21184;DHT22;18176;49.502;11.754;2024-02-26T14:47:45;13.40;99.90
21184;DHT22;18176;49.502;11.754;2024-02-26T14:52:09;12.80;99.90
21184;DHT22;18176;49.502;11.754;2024-02-26T14:56:32;12.40;99.90
21184;DHT22;18176;49.502;11.754;2024-02-26T15:00:54;12.20;99.90
21184;DHT22;18176;49.502;11.754;2024-02-26T15:05:15;11.90;99.90
21184;DHT22;18176;49.502;11.754;2024-02-26T15:09:37;11.70;99.90
21184;DHT22;18176;49.502;11.754;2024-02-26T15:14:01;11.20;99.90
21184;DHT22;18176;49.502;11.754;2024-02-26T15:18:22;10.80;99.90
21184;DHT22;18176;49.502;11.754;2024-02-26T15:22:43;10.50;99.90
21184;DHT22;18176;49.502;11.754;2024-02-26T15:27:04;10.40;99.90
21184;DHT22;18176;49.502;11.754;2024-02-26T15:31:28;10.30;99.90
21184;DHT22;18176;49.502;11.754;2024-02-26T15:35:49;10.20;99.90
21184;DHT22;18176;49.502;11.754;2024-02-26T15:40:11;10.20;99.90
21184;DHT22;18176;49.502;11.754;2024-02-26T15:44:32;10.20;99.90
21184;DHT22;18176;49.502;11.754;2024-02-26T15:48:56;10.10;99.90
21184;DHT22;18176;49.502;11.754;2024-02-26T15:53:17;10.00;99.90
21184;DHT22;18176;49.502;11.754;2024-02-26T15:57:41;9.90;99.90
21184;DHT22;18176;49.502;11.754;2024-02-26T16:02:04;9.60;99.90
21184;DHT22;18176;49.502;11.754;2024-02-26T16:06:31;9.40;99.90
21184;DHT22;18176;49.502;11.754;2024-02-26T16:10:55;9.10;99.90
21184;DHT22;18176;49.502;11.754;2024-02-26T16:15:20;8.90;99.90
21184;DHT22;18176;49.502;11.754;2024-02-26T16:19:42;8.60;99.90
21184;DHT22;18176;49.502;11.754;2024-02-26T16:24:07;8.40;99.90
21184;DHT22;18176;49.502;11.754;2024-02-26T16:28:28;8.30;99.90
21184;DHT22;18176;49.502;11.754;2024-02-26T16:32:49;8.30;99.90
21184;DHT22;18176;49.502;11.754;2024-02-26T16:37:11;8.30;99.90
21184;DHT22;18176;49.502;11.754;2024-02-26T16:41:36;8.20;99.90
21184;DHT22;18176;49.502;11.754;2024-02-26T16:45:56;8.10;99.90
21184;DHT22;18176;49.502;11.754;2024-02-26T16:50:19;7.90;99.90
21184;DHT22;18176;49.502;11.754;2024-02-26T16:54:40;7.70;99.90
21184;DHT22;18176;49.502;11.754;2024-02-26T16:59:04;7.50;99.90
21184;DHT22;18176;49.502;11.754;2024-02-26T17:03:28;7.20;99.90
21184;DHT22;18176;49.502;11.754;2024-02-26T17:07:49;7.10;99.90
21184;DHT22;18176;49.502;11.754;2024-02-26T17:12:10;7.00;99.90
21184;DHT22;18176;49.502;11.754;2024-02-26T17:16:34;6.90;99.90
21184;DHT22;18176;49.502;11.754;2024-02-26T17:20:58;7.00;99.90
21184;DHT22;18176;49.502;11.754;2024-02-26T17:25:20;7.00;99.90
21184;DHT22;18176;49.502;11.754;2024-02-26T17:29:41;6.80;99.90
21184;DHT22;18176;49.502;11.754;2024-02-26T17:34:04;6.50;99.90
21184;DHT22;18176;49.502;11.754;2024-02-26T17:38:27;6.20;99.90
21184;DHT22;18176;49.502;11.754;2024-02-26T17:42:48;6.20;99.90
21184;DHT22;18176;49.502;11.754;2024-02-26T17:47:09;6.00;99.90
21184;DHT22;18176;49.502;11.754;2024-02-26T17:51:33;6.00;99.90
21184;DHT22;18176;49.502;11.754;2024-02-26T17:55:55;5.80;99.90
21184;DHT22;18176;49.502;11.754;2024-02-26T18:00:19;5.70;99.90
21184;DHT22;18176;49.502;11.754;2024-02-26T18:04:41;5.50;99.90
21184;DHT22;18176;49.502;11.754;2024-02-26T18:09:04;5.40;99.90
21184;DHT22;18176;49.502;11.754;2024-02-26T18:13:29;5.30;99.90
21184;DHT22;18176;49.502;11.754;2024-02-26T18:17:50;5.10;99.90
21184;DHT22;18176;49.502;11.754;2024-02-26T18:22:14;5.10;99.90
21184;DHT22;18176;49.502;11.754;2024-02-26T18:26:37;5.00;99.90
21184;DHT22;18176;49.502;11.754;2024-02-26T18:30:59;5.00;99.90
21184;DHT22;18176;49.502;11.754;2024-02-26T18:35:20;4.90;99.90
21184;DHT22;18176;49.502;11.754;2024-02-26T18:39:46;4.80;99.90
21184;DHT22;18176;49.502;11.754;2024-02-26T18:44:10;4.80;99.90
21184;DHT22;18176;49.502;11.754;2024-02-26T18:48:32;4.80;99.90
21184;DHT22;18176;49.502;11.754;2024-02-26T18:52:54;4.70;99.90
21184;DHT22;18176;49.502;11.754;2024-02-26T18:57:20;4.70;99.90
21184;DHT22;18176;49.502;11.754;2024-02-26T19:01:45;4.70;99.90
21184;DHT22;18176;49.502;11.754;2024-02-26T19:06:08;4.60;99.90
21184;DHT22;18176;49.502;11.754;2024-02-26T19:10:30;4.70;99.90
21184;DHT22;18176;49.502;11.754;2024-02-26T19:14:51;4.70;99.90
21184;DHT22;18176;49.502;11.754;2024-02-26T19:19:16;4.60;99.90
21184;DHT22;18176;49.502;11.754;2024-02-26T19:23:41;4.60;99.90
21184;DHT22;18176;49.502;11.754;2024-02-26T19:28:03;4.70;99.90
21184;DHT22;18176;49.502;11.754;2024-02-26T19:32:24;4.70;99.90
21184;DHT22;18176;49.502;11.754;2024-02-26T19:36:48;4.70;99.90
21184;DHT22;18176;49.502;11.754;2024-02-26T19:41:09;4.70;99.90
21184;DHT22;18176;49.502;11.754;2024-02-26T19:45:35;4.70;99.90
21184;DHT22;18176;49.502;11.754;2024-02-26T19:49:58;4.70;99.90
21184;DHT22;18176;49.502;11.754;2024-02-26T19:54:25;4.70;99.90
21184;DHT22;18176;49.502;11.754;2024-02-26T19:58:57;4.70;99.90
21184;DHT22;18176;49.502;11.754;2024-02-26T20:03:29;4.70;99.90
21184;DHT22;18176;49.502;11.754;2024-02-26T20:07:53;4.70;99.90
21184;DHT22;18176;49.502;11.754;2024-02-26T20:12:20;4.70;99.90
21184;DHT22;18176;49.502;11.754;2024-02-26T20:16:42;4.70;99.90
21184;DHT22;18176;49.502;11.754;2024-02-26T20:21:04;4.70;99.90
21184;DHT22;18176;49.502;11.754;2024-02-26T20:25:27;4.80;99.90
21184;DHT22;18176;49.502;11.754;2024-02-26T20:29:53;4.70;99.90
21184;DHT22;18176;49.502;11.754;2024-02-26T20:34:19;4.70;99.90
21184;DHT22;18176;49.502;11.754;2024-02-26T20:38:40;4.70;99.90
21184;DHT22;18176;49.502;11.754;2024-02-26T20:43:02;4.80;99.90
21184;DHT22;18176;49.502;11.754;2024-02-26T20:47:28;4.80;99.90
21184;DHT22;18176;49.502;11.754;2024-02-26T20:51:52;4.80;99.90
21184;DHT22;18176;49.502;11.754;2024-02-26T20:56:14;4.80;99.90
21184;DHT22;18176;49.502;11.754;2024-02-26T21:00:35;4.70;99.90
21184;DHT22;18176;49.502;11.754;2024-02-26T21:05:02;4.70;99.90
21184;DHT22;18176;49.502;11.754;2024-02-26T21:09:29;4.70;99.90
21184;DHT22;18176;49.502;11.754;2024-02-26T21:13:53;4.70;99.90
21184;DHT22;18176;49.502;11.754;2024-02-26T21:18:16;4.60;99.90
21184;DHT22;18176;49.502;11.754;2024-02-26T21:22:40;4.60;99.90
21184;DHT22;18176;49.502;11.754;2024-02-26T21:27:06;4.60;99.90
21184;DHT22;18176;49.502;11.754;2024-02-26T21:31:27;4.60;99.90
21184;DHT22;18176;49.502;11.754;2024-02-26T21:35:50;4.60;99.90
21184;DHT22;18176;49.502;11.754;2024-02-26T21:40:15;4.60;99.90
21184;DHT22;18176;49.502;11.754;2024-02-26T21:44:41;4.70;99.90
21184;DHT22;18176;49.502;11.754;2024-02-26T21:49:05;4.70;99.90
21184;DHT22;18176;49.502;11.754;2024-02-26T21:53:26;4.80;99.90
21184;DHT22;18176;49.502;11.754;2024-02-26T21:57:52;4.70;99.90
21184;DHT22;18176;49.502;11.754;2024-02-26T22:02:12;4.70;99.90
21184;DHT22;18176;49.502;11.754;2024-02-26T22:06:34;4.60;99.90
21184;DHT22;18176;49.502;11.754;2024-02-26T22:10:56;4.70;99.90
21184;DHT22;18176;49.502;11.754;2024-02-26T22:15:20;4.70;99.90
21184;DHT22;18176;49.502;11.754;2024-02-26T22:19:41;4.60;99.90
21184;DHT22;18176;49.502;11.754;2024-02-26T22:24:05;4.60;99.90
21184;DHT22;18176;49.502;11.754;2024-02-26T22:28:26;4.40;99.90
21184;DHT22;18176;49.502;11.754;2024-02-26T22:32:50;4.20;99.90
21184;DHT22;18176;49.502;11.754;2024-02-26T22:37:12;4.20;99.90
21184;DHT22;18176;49.502;11.754;2024-02-26T22:41:45;4.20;99.90
21184;DHT22;18176;49.502;11.754;2024-02-26T22:46:06;4.10;99.90
21184;DHT22;18176;49.502;11.754;2024-02-26T22:50:30;4.20;99.90
21184;DHT22;18176;49.502;11.754;2024-02-26T22:54:51;4.20;99.90
21184;DHT22;18176;49.502;11.754;2024-02-26T22:59:12;4.30;99.90
21184;DHT22;18176;49.502;11.754;2024-02-26T23:03:34;4.40;99.90
21184;DHT22;18176;49.502;11.754;2024-02-26T23:07:58;4.40;99.90
21184;DHT22;18176;49.502;11.754;2024-02-26T23:12:19;4.40;99.90
21184;DHT22;18176;49.502;11.754;2024-02-26T23:16:40;4.40;99.90
21184;DHT22;18176;49.502;11.754;2024-02-26T23:21:03;4.40;99.90
21184;DHT22;18176;49.502;11.754;2024-02-26T23:25:27;4.40;99.90
21184;DHT22;18176;49.502;11.754;2024-02-26T23:29:48;4.40;99.90
21184;DHT22;18176;49.502;11.754;2024-02-26T23:34:09;4.40;99.90
21184;DHT22;18176;49.502;11.754;2024-02-26T23:38:30;4.40;99.90
21184;DHT22;18176;49.502;11.754;2024-02-26T23:42:54;4.40;99.90
21184;DHT22;18176;49.502;11.754;2024-02-26T23:47:15;4.40;99.90
21184;DHT22;18176;49.502;11.754;2024-02-26T23:51:36;4.30;99.90
21184;DHT22;18176;49.502;11.754;2024-02-26T23:55:57;4.40;99.90
